Santa Terezinha, Brazil
Current Conditions -  °F | °C
As of 11:00 PM on Friday 24 Oct 2014 (Local Time) from SBNF Reporting Station
Broken Clouds Broken Clouds  
Wind Chill: 73°   Ceiling: 3000
Heat Index: 73°   Visibility: 6mi
Dew Point: 64°   Wind: 14mph
Humidity: 73%   Direction: 40°NE
Pressure: 29.97"   Gusts: NA
Location:  26.78°S, 50.01°W
Report Text: SBNF 250100Z 04012KT 9999 FEW012 SCT016 BKN030 23/18 Q1015
Loading
Personal Weather Stations






























Interactive Weather Map
Tropical Storm Tracking
New forecast layout! Learn more

10-Day Weather Forecast

Advertisements
Track Severe Weather on mobile